Fort Kent, Maine
Current Conditions -  °F | °C
As of 2:53 AM on Wednesday 22 Oct 2014 (Local Time) from KFVE Reporting Station
Overcast Overcast  
Wind Chill: 30°   Ceiling: 6000
Heat Index: 36°   Visibility: 10mi
Dew Point: 28°   Wind: 7mph
Humidity: 73%   Direction: 10°N
Pressure: 30.31"   Gusts: NA
Location:  47.26°N, 68.59°W
Report Text: KFVE 220653Z AUTO 01006KT 10SM OVC060 02/M02 A3031 RMK AO2 SLP269 T00221022
Loading
Personal Weather Stations






























Interactive Weather Map
Tropical Storm Tracking
New forecast layout! Learn more

10-Day Weather Forecast

Advertisements
Track Severe Weather on mobile